Time;durP1;ratioP1;P1;durP2;ratioP2;P2;SDS_P1;SDS_P2;PMS_P1;PMS_P2;Temp;Humidity;BMP_temperature;BMP_pressure;BME280_temperature;BME280_humidity;BME280_pressure;Samples;Min_cycle;Max_cycle;Signal;HPM_P1;HPM_P2
2022/10/21 00:00:56;;;;;;;35.95;18.85;;;;;12.60;93894.00;;;;7392392;19;20149;-72
2022/10/21 00:03:25;;;;;;;30.83;15.93;;;;;12.70;93891.00;;;;7393163;19;20132;-72
2022/10/21 00:05:56;;;;;;;35.60;16.55;;;;;12.70;93891.00;;;;7394416;19;20136;-72
2022/10/21 00:08:30;;;;;;;37.72;16.17;;;;;12.60;93897.00;;;;7391940;19;20145;-72
2022/10/21 00:11:01;;;;;;;29.75;14.45;;;;;12.70;93893.00;;;;7392782;19;20144;-72
2022/10/21 00:13:31;;;;;;;31.52;15.10;;;;;12.70;93893.00;;;;7393101;19;20129;-73
2022/10/21 00:16:10;;;;;;;28.13;13.60;;;;;12.70;93890.00;;;;7397157;19;20124;-72
2022/10/21 00:18:39;;;;;;;25.77;13.48;;;;;12.70;93886.00;;;;7391164;19;20139;-72
2022/10/21 00:21:20;;;;;;;36.80;14.20;;;;;12.70;93875.00;;;;7394682;19;20223;-72
2022/10/21 00:23:49;;;;;;;26.90;12.90;;;;;12.70;93874.00;;;;7394952;19;20148;-71
2022/10/21 00:26:24;;;;;;;27.90;12.98;;;;;12.70;93876.00;;;;7394130;19;20154;-74
2022/10/21 00:28:55;;;;;;;34.55;13.02;;;;;12.50;93871.00;;;;7394764;19;20165;-72
2022/10/21 00:31:24;;;;;;;33.45;13.75;;;;;12.60;93871.00;;;;7394772;19;20139;-73
2022/10/21 00:33:58;;;;;;;24.77;13.88;;;;;12.60;93866.00;;;;7394488;19;20179;-72
2022/10/21 00:36:25;;;;;;;21.15;11.65;;;;;12.70;93869.00;;;;7392887;19;20159;-73
2022/10/21 00:38:53;;;;;;;29.88;13.63;;;;;12.70;93867.00;;;;7392136;19;20705;-72
2022/10/21 00:41:29;;;;;;;27.40;13.02;;;;;12.80;93872.00;;;;7392192;19;20625;-73
2022/10/21 00:44:10;;;;;;;32.03;12.55;;;;;12.70;93861.00;;;;7394490;19;20162;-73
2022/10/21 00:46:52;;;;;;;29.90;12.73;;;;;12.60;93861.00;;;;7393518;19;20163;-72
2022/10/21 00:49:40;;;;;;;20.48;11.50;;;;;12.70;93859.00;;;;7392542;19;20179;-72
2022/10/21 00:52:20;;;;;;;25.58;12.10;;;;;12.70;93877.00;;;;7391865;19;20172;-73
2022/10/21 00:54:57;;;;;;;28.05;11.80;;;;;12.60;93876.00;;;;7397881;19;20741;-72
2022/10/21 00:57:33;;;;;;;31.63;12.30;;;;;12.70;93890.00;;;;7400781;19;20154;-73
2022/10/21 01:00:04;;;;;;;21.90;11.38;;;;;12.70;93889.00;;;;7401245;19;20204;-73
2022/10/21 01:02:37;;;;;;;22.65;11.55;;;;;12.90;93888.00;;;;7397673;19;20168;-72
2022/10/21 01:05:05;;;;;;;20.58;11.40;;;;;12.80;93889.00;;;;7398485;19;20149;-73
2022/10/21 01:07:33;;;;;;;21.83;11.98;;;;;12.80;93885.00;;;;7399748;19;20556;-73
2022/10/21 01:10:10;;;;;;;24.15;11.15;;;;;12.80;93870.00;;;;7401875;19;20152;-72
2022/10/21 01:12:48;;;;;;;19.70;10.82;;;;;12.70;93858.00;;;;7398255;19;20228;-72
2022/10/21 01:15:43;;;;;;;25.10;11.07;;;;;12.70;93854.00;;;;7398116;19;20504;-72
2022/10/21 01:18:37;;;;;;;22.38;10.25;;;;;12.50;93852.00;;;;7394515;19;20155;-72
2022/10/21 01:21:34;;;;;;;16.73;9.50;;;;;12.60;93862.00;;;;7398566;19;20626;-72
2022/10/21 01:24:22;;;;;;;21.95;9.80;;;;;12.50;93851.00;;;;7398808;19;20487;-72
2022/10/21 01:27:07;;;;;;;18.27;8.20;;;;;12.50;93849.00;;;;7399447;19;20148;-73
2022/10/21 01:29:51;;;;;;;17.77;8.88;;;;;12.40;93838.00;;;;7399288;19;20151;-73
2022/10/21 01:32:35;;;;;;;23.23;9.77;;;;;12.60;93831.00;;;;7397146;19;20615;-73
2022/10/21 01:35:10;;;;;;;16.38;7.72;;;;;12.50;93824.00;;;;7398910;19;20121;-73
2022/10/21 01:38:01;;;;;;;20.60;7.50;;;;;12.60;93822.00;;;;7397940;19;20584;-73
2022/10/21 01:40:35;;;;;;;19.02;8.23;;;;;12.70;93817.00;;;;7396996;19;20152;-72
2022/10/21 01:43:36;;;;;;;24.77;9.02;;;;;12.60;93821.00;;;;7398197;19;20514;-72
2022/10/21 01:46:20;;;;;;;21.10;8.60;;;;;12.60;93813.00;;;;7399493;19;20180;-73
2022/10/21 01:49:20;;;;;;;19.35;8.25;;;;;12.70;93807.00;;;;7396307;19;20215;-72
2022/10/21 01:51:56;;;;;;;18.83;7.93;;;;;12.60;93820.00;;;;7396702;19;20186;-72
2022/10/21 01:54:37;;;;;;;12.63;6.95;;;;;12.70;93815.00;;;;7396429;19;20652;-71
2022/10/21 01:57:07;;;;;;;12.52;6.35;;;;;12.70;93808.00;;;;7399198;19;20133;-74
2022/10/21 01:59:44;;;;;;;12.52;6.93;;;;;12.60;93824.00;;;;7399474;19;20627;-71
2022/10/21 02:02:16;;;;;;;10.57;6.20;;;;;12.60;93813.00;;;;7395744;19;20151;-72
2022/10/21 02:04:50;;;;;;;21.92;6.93;;;;;12.60;93815.00;;;;7395329;19;20137;-74
2022/10/21 02:07:24;;;;;;;13.93;7.22;;;;;12.60;93813.00;;;;7398935;19;20137;-74
2022/10/21 02:09:51;;;;;;;10.82;7.20;;;;;12.50;93811.00;;;;7399757;19;20510;-72
2022/10/21 02:12:24;;;;;;;15.93;6.82;;;;;12.60;93809.00;;;;7395006;19;20156;-72
2022/10/21 02:15:01;;;;;;;13.68;6.90;;;;;12.50;93797.00;;;;7398715;19;20180;-73
2022/10/21 02:17:29;;;;;;;14.30;6.78;;;;;12.50;93782.00;;;;7398431;19;20148;-73
2022/10/21 02:20:00;;;;;;;12.65;6.40;;;;;12.40;93778.00;;;;7399131;19;20151;-72
2022/10/21 02:22:37;;;;;;;11.52;6.05;;;;;12.40;93767.00;;;;7394750;19;20152;-73
2022/10/21 02:25:22;;;;;;;10.68;5.97;;;;;12.40;93772.00;;;;7394561;19;20155;-74
2022/10/21 02:27:56;;;;;;;8.23;5.55;;;;;12.40;93765.00;;;;7398595;19;20172;-73
2022/10/21 02:30:31;;;;;;;12.85;7.05;;;;;12.50;93769.00;;;;7395114;19;20133;-73
2022/10/21 02:33:22;;;;;;;16.33;6.57;;;;;12.60;93769.00;;;;7395648;19;20148;-73
2022/10/21 02:36:37;;;;;;;14.52;6.82;;;;;12.70;93754.00;;;;7396889;19;20207;-72
2022/10/21 02:39:19;;;;;;;15.52;7.60;;;;;12.70;93758.00;;;;7393641;19;20273;-72
2022/10/21 02:41:49;;;;;;;17.13;7.95;;;;;12.60;93744.00;;;;7393758;19;20147;-72
2022/10/21 02:44:23;;;;;;;15.55;8.32;;;;;12.60;93747.00;;;;7393060;19;20152;-73
2022/10/21 02:46:51;;;;;;;15.32;7.70;;;;;12.80;93734.00;;;;7395305;19;20152;-72
2022/10/21 02:49:19;;;;;;;14.90;7.90;;;;;12.90;93730.00;;;;7396410;19;20169;-72
2022/10/21 02:52:04;;;;;;;17.73;7.93;;;;;12.90;93732.00;;;;7396127;19;20498;-74
2022/10/21 02:54:31;;;;;;;18.00;7.47;;;;;12.90;93727.00;;;;7394898;19;20153;-73
2022/10/21 02:57:05;;;;;;;14.35;7.05;;;;;13.00;93726.00;;;;7395124;19;20151;-72
2022/10/21 02:59:32;;;;;;;15.68;7.32;;;;;13.00;93716.00;;;;7394072;19;20129;-71
2022/10/21 03:02:00;;;;;;;16.35;7.68;;;;;12.90;93712.00;;;;7393081;19;20504;-72
2022/10/21 03:04:34;;;;;;;17.15;7.60;;;;;12.90;93723.00;;;;7394324;19;20497;-72
2022/10/21 03:07:06;;;;;;;17.33;7.30;;;;;13.00;93719.00;;;;7393892;19;20607;-72
2022/10/21 03:09:33;;;;;;;17.05;8.27;;;;;13.00;93720.00;;;;7395760;19;20144;-71
2022/10/21 03:12:10;;;;;;;17.10;7.38;;;;;13.10;93706.00;;;;7397027;19;20204;-71
2022/10/21 03:14:37;;;;;;;14.75;7.28;;;;;13.10;93711.00;;;;7393114;19;20153;-71
2022/10/21 03:17:11;;;;;;;14.73;7.70;;;;;13.10;93698.00;;;;7393248;19;20632;-70
2022/10/21 03:19:50;;;;;;;12.52;7.75;;;;;13.20;93698.00;;;;7393692;19;20145;-70
2022/10/21 03:22:22;;;;;;;16.75;7.70;;;;;13.20;93695.00;;;;7393662;19;20160;-73
2022/10/21 03:24:56;;;;;;;18.83;7.45;;;;;13.20;93693.00;;;;7393543;19;20148;-72
2022/10/21 03:27:23;;;;;;;13.93;6.80;;;;;13.20;93702.00;;;;7394639;19;20240;-72
2022/10/21 03:29:55;;;;;;;15.70;6.80;;;;;13.20;93698.00;;;;7395700;19;20144;-71
2022/10/21 03:32:34;;;;;;;13.70;6.68;;;;;13.40;93704.00;;;;7393607;19;20623;-71
2022/10/21 03:35:02;;;;;;;14.85;6.13;;;;;13.50;93705.00;;;;7393611;19;20182;-72
2022/10/21 03:37:33;;;;;;;9.57;6.15;;;;;13.60;93701.00;;;;7395037;19;20137;-72
2022/10/21 03:40:07;;;;;;;12.93;6.22;;;;;13.80;93711.00;;;;7394197;19;20623;-72
2022/10/21 03:42:40;;;;;;;13.57;5.90;;;;;13.70;93711.00;;;;7393580;19;20137;-70
2022/10/21 03:45:09;;;;;;;16.38;6.93;;;;;13.80;93713.00;;;;7393619;19;20540;-70
2022/10/21 03:47:46;;;;;;;15.43;7.60;;;;;13.80;93708.00;;;;7394175;19;20902;-71
2022/10/21 03:50:20;;;;;;;17.75;7.45;;;;;13.80;93696.00;;;;7390136;19;20558;-71
2022/10/21 03:52:54;;;;;;;20.77;7.10;;;;;13.80;93696.00;;;;7392768;19;20196;-69
2022/10/21 03:55:24;;;;;;;14.45;7.10;;;;;13.90;93698.00;;;;7392109;19;20144;-72
2022/10/21 03:57:52;;;;;;;10.82;6.53;;;;;13.80;93693.00;;;;7393697;19;20488;-71
2022/10/21 04:00:26;;;;;;;16.27;6.95;;;;;13.80;93692.00;;;;7390295;19;20571;-71
2022/10/21 04:02:58;;;;;;;13.23;6.15;;;;;13.90;93686.00;;;;7395621;19;20485;-70
2022/10/21 04:05:25;;;;;;;10.65;5.78;;;;;14.00;93677.00;;;;7392670;19;20132;-70
2022/10/21 04:07:59;;;;;;;17.33;5.97;;;;;14.00;93679.00;;;;7394472;19;20160;-71
2022/10/21 04:10:33;;;;;;;17.00;5.85;;;;;14.00;93677.00;;;;7391934;19;20149;-73
2022/10/21 04:13:07;;;;;;;14.57;6.13;;;;;14.00;93671.00;;;;7394450;19;20208;-71
2022/10/21 04:15:34;;;;;;;10.40;5.20;;;;;14.10;93660.00;;;;7394721;19;20132;-71
2022/10/21 04:18:02;;;;;;;13.45;5.57;;;;;14.10;93659.00;;;;7396544;19;20121;-72
2022/10/21 04:20:36;;;;;;;18.70;5.82;;;;;14.20;93659.00;;;;7389759;19;20120;-72
2022/10/21 04:23:08;;;;;;;19.85;5.75;;;;;14.20;93658.00;;;;7393966;19;20177;-70
2022/10/21 04:25:35;;;;;;;12.35;4.78;;;;;14.30;93655.00;;;;7393124;19;20167;-72
2022/10/21 04:28:10;;;;;;;14.63;5.45;;;;;14.40;93648.00;;;;7394291;19;20152;-71
2022/10/21 04:30:38;;;;;;;11.80;4.70;;;;;14.30;93655.00;;;;7392672;19;20152;-71
2022/10/21 04:33:05;;;;;;;13.82;5.20;;;;;14.30;93649.00;;;;7395049;19;20144;-71
2022/10/21 04:35:39;;;;;;;12.10;4.68;;;;;14.30;93652.00;;;;7395164;19;20140;-73
2022/10/21 04:38:08;;;;;;;11.23;4.75;;;;;14.30;93647.00;;;;7396449;19;20156;-72
2022/10/21 04:40:36;;;;;;;9.20;4.72;;;;;14.30;93644.00;;;;7391425;19;20236;-70
2022/10/21 04:43:16;;;;;;;9.90;4.70;;;;;14.30;93638.00;;;;7393109;19;20149;-71
2022/10/21 04:45:44;;;;;;;15.43;5.25;;;;;14.30;93641.00;;;;7393728;19;20148;-70
2022/10/21 04:48:12;;;;;;;17.13;5.20;;;;;14.20;93634.00;;;;7392268;19;20519;-71
2022/10/21 04:50:54;;;;;;;11.80;4.60;;;;;14.30;93642.00;;;;7389320;19;20518;-70
2022/10/21 04:53:22;;;;;;;15.82;5.05;;;;;14.20;93644.00;;;;7393299;19;20153;-71
2022/10/21 04:55:56;;;;;;;11.85;4.82;;;;;14.20;93648.00;;;;7392587;19;20132;-71
2022/10/21 04:58:23;;;;;;;17.33;4.55;;;;;14.20;93648.00;;;;7393197;19;20170;-71
2022/10/21 05:00:51;;;;;;;9.73;4.18;;;;;14.20;93672.00;;;;7387860;19;20152;-71
2022/10/21 05:03:28;;;;;;;11.43;5.28;;;;;14.10;93658.00;;;;7392807;19;20131;-71
2022/10/21 05:05:55;;;;;;;12.40;4.80;;;;;14.00;93648.00;;;;7392583;19;20162;-69
2022/10/21 05:08:22;;;;;;;11.88;4.65;;;;;14.10;93648.00;;;;7388938;19;20137;-70
2022/10/21 05:11:01;;;;;;;15.20;5.30;;;;;13.90;93664.00;;;;7392273;19;20137;-73
2022/10/21 05:13:29;;;;;;;16.45;5.53;;;;;13.80;93663.00;;;;7393386;19;20140;-72
2022/10/21 05:16:06;;;;;;;11.98;4.93;;;;;13.70;93654.00;;;;7391366;19;20152;-73
2022/10/21 05:18:33;;;;;;;14.18;5.28;;;;;13.70;93655.00;;;;7392201;19;20148;-73
2022/10/21 05:21:18;;;;;;;14.80;5.25;;;;;13.60;93656.00;;;;7389575;19;20620;-73
2022/10/21 05:23:51;;;;;;;16.40;5.55;;;;;13.60;93653.00;;;;7393774;19;20153;-73
2022/10/21 05:26:19;;;;;;;22.75;4.93;;;;;13.50;93644.00;;;;7389525;19;20583;-73
2022/10/21 05:28:46;;;;;;;17.88;5.45;;;;;13.50;93645.00;;;;7389061;19;20230;-73
2022/10/21 05:31:20;;;;;;;15.15;5.50;;;;;13.50;93649.00;;;;7392434;19;20223;-73
2022/10/21 05:33:48;;;;;;;18.05;5.45;;;;;13.50;93637.00;;;;7389652;19;20149;-74
2022/10/21 05:36:15;;;;;;;20.52;5.45;;;;;13.50;93641.00;;;;7390265;19;20216;-74
2022/10/21 05:38:53;;;;;;;17.92;6.57;;;;;13.50;93627.00;;;;7390643;19;20137;-74
2022/10/21 05:41:23;;;;;;;20.48;5.50;;;;;13.40;93628.00;;;;7394594;19;20151;-73
2022/10/21 05:43:50;;;;;;;16.13;6.05;;;;;13.40;93625.00;;;;7399205;19;20204;-74
2022/10/21 05:46:24;;;;;;;18.42;6.22;;;;;13.40;93626.00;;;;7396592;19;20155;-74
2022/10/21 05:48:56;;;;;;;12.85;5.53;;;;;13.30;93626.00;;;;7397149;19;20152;-75
2022/10/21 05:51:34;;;;;;;12.40;5.78;;;;;13.30;93632.00;;;;7396430;19;20878;-74
2022/10/21 05:54:09;;;;;;;18.60;5.82;;;;;13.30;93631.00;;;;7397520;19;20143;-73
2022/10/21 05:56:36;;;;;;;15.13;6.50;;;;;13.40;93614.00;;;;7395982;19;20149;-75
2022/10/21 05:59:03;;;;;;;15.20;5.93;;;;;13.30;93618.00;;;;7394833;19;20154;-75
2022/10/21 06:01:40;;;;;;;17.42;6.03;;;;;13.30;93603.00;;;;7396249;19;20149;-75
2022/10/21 06:04:07;;;;;;;21.23;6.38;;;;;13.30;93594.00;;;;7401712;19;20160;-74
2022/10/21 06:06:38;;;;;;;12.57;5.38;;;;;13.20;93599.00;;;;7399646;19;20133;-75
2022/10/21 06:09:19;;;;;;;15.65;5.18;;;;;13.30;93612.00;;;;7398545;19;20145;-73
2022/10/21 06:11:47;;;;;;;10.07;5.30;;;;;13.40;93614.00;;;;7400358;19;20156;-74
2022/10/21 06:14:14;;;;;;;16.50;5.45;;;;;13.40;93619.00;;;;7399543;19;20208;-74
2022/10/21 06:16:48;;;;;;;12.02;5.32;;;;;13.30;93631.00;;;;7398373;19;20145;-74
2022/10/21 06:19:17;;;;;;;18.17;5.50;;;;;13.30;93609.00;;;;7400224;19;20145;-77
2022/10/21 06:21:46;;;;;;;14.90;5.90;;;;;13.30;93609.00;;;;7397533;19;20151;-74
2022/10/21 06:24:20;;;;;;;23.15;5.63;;;;;13.40;93601.00;;;;7396151;19;20615;-74
2022/10/21 06:26:49;;;;;;;15.15;5.45;;;;;13.30;93611.00;;;;7397535;19;20160;-74
2022/10/21 06:29:19;;;;;;;12.82;4.80;;;;;13.30;93628.00;;;;7397279;19;20133;-74
2022/10/21 06:31:53;;;;;;;11.48;5.35;;;;;13.40;93646.00;;;;7398134;19;20164;-74
2022/10/21 06:34:22;;;;;;;12.50;5.10;;;;;13.50;93695.00;;;;7394602;19;20157;-75
2022/10/21 06:36:52;;;;;;;14.77;5.55;;;;;13.40;93676.00;;;;7396906;19;20137;-73
2022/10/21 06:39:49;;;;;;;14.80;5.30;;;;;13.30;93681.00;;;;7394052;19;20145;-74
2022/10/21 06:42:26;;;;;;;19.33;5.22;;;;;13.30;93667.00;;;;7394660;19;20171;-74
2022/10/21 06:45:01;;;;;;;13.93;5.18;;;;;13.40;93653.00;;;;7397746;19;20156;-74
2022/10/21 06:47:28;;;;;;;23.15;5.70;;;;;13.30;93634.00;;;;7394887;19;20149;-74
2022/10/21 06:50:03;;;;;;;14.25;5.10;;;;;13.30;93626.00;;;;7395887;19;20244;-73
2022/10/21 06:52:44;;;;;;;15.60;4.47;;;;;13.30;93601.00;;;;7394384;19;20179;-74
2022/10/21 06:55:11;;;;;;;10.95;4.72;;;;;13.30;93609.00;;;;7396689;19;20506;-75
2022/10/21 06:57:49;;;;;;;12.07;4.75;;;;;13.30;93618.00;;;;7396543;19;20182;-74
2022/10/21 07:00:17;;;;;;;10.02;4.45;;;;;13.20;93630.00;;;;7393350;19;20137;-74
2022/10/21 07:02:44;;;;;;;14.40;4.60;;;;;13.20;93629.00;;;;7392494;19;20157;-74
2022/10/21 07:05:18;;;;;;;17.02;5.15;;;;;13.20;93629.00;;;;7389001;19;20191;-76
2022/10/21 07:07:46;;;;;;;15.90;4.75;;;;;13.20;93627.00;;;;7391773;19;20167;-74
2022/10/21 07:10:14;;;;;;;14.35;5.40;;;;;13.20;93632.00;;;;7390311;19;20164;-73
2022/10/21 07:12:48;;;;;;;9.55;4.40;;;;;13.20;93633.00;;;;7391447;19;20646;-74
2022/10/21 07:15:15;;;;;;;11.70;4.75;;;;;13.30;93621.00;;;;7390870;19;20641;-73
2022/10/21 07:17:43;;;;;;;15.82;5.18;;;;;13.30;93659.00;;;;7390478;19;20633;-74
2022/10/21 07:20:19;;;;;;;13.80;5.85;;;;;13.30;93669.00;;;;7392026;19;20137;-73
2022/10/21 07:22:47;;;;;;;15.00;4.93;;;;;13.40;93670.00;;;;7394639;19;20143;-74
2022/10/21 07:25:14;;;;;;;17.50;5.72;;;;;13.40;93680.00;;;;7392214;19;20211;-74
2022/10/21 07:27:49;;;;;;;16.83;5.15;;;;;13.50;93663.00;;;;7391118;19;20180;-74
2022/10/21 07:30:16;;;;;;;14.18;5.70;;;;;13.40;93670.00;;;;7389340;19;20133;-75
2022/10/21 07:32:44;;;;;;;16.08;5.40;;;;;13.40;93664.00;;;;7394386;19;20145;-75
2022/10/21 07:35:22;;;;;;;12.93;5.03;;;;;13.30;93657.00;;;;7391913;19;20133;-73
2022/10/21 07:37:50;;;;;;;12.50;4.90;;;;;13.40;93655.00;;;;7393160;19;20152;-74
2022/10/21 07:40:17;;;;;;;13.70;4.72;;;;;13.40;93650.00;;;;7391658;19;20230;-74
2022/10/21 07:42:54;;;;;;;14.18;4.70;;;;;13.30;93648.00;;;;7391337;19;20647;-74
2022/10/21 07:45:22;;;;;;;11.98;4.20;;;;;13.30;93644.00;;;;7392480;19;20163;-74
2022/10/21 07:47:50;;;;;;;10.57;3.90;;;;;13.30;93637.00;;;;7393281;19;20168;-74
2022/10/21 07:50:30;;;;;;;10.13;4.72;;;;;13.30;93630.00;;;;7388130;19;20180;-75
2022/10/21 07:52:59;;;;;;;13.50;3.92;;;;;13.30;93637.00;;;;7385227;19;20176;-74
2022/10/21 07:55:41;;;;;;;7.63;3.25;;;;;13.30;93635.00;;;;7387924;19;20188;-73
2022/10/21 07:58:10;;;;;;;7.72;3.25;;;;;13.30;93631.00;;;;7389652;19;20200;-75
2022/10/21 08:00:48;;;;;;;10.98;3.50;;;;;13.30;93637.00;;;;7386206;19;20148;-75
2022/10/21 08:03:15;;;;;;;11.95;3.35;;;;;13.40;93625.00;;;;7389983;19;20160;-74
2022/10/21 08:05:43;;;;;;;7.50;3.17;;;;;13.40;93634.00;;;;7386068;19;20133;-74
2022/10/21 08:08:21;;;;;;;7.68;2.92;;;;;13.50;93641.00;;;;7392898;19;20919;-74
2022/10/21 08:10:51;;;;;;;5.90;3.03;;;;;13.50;93633.00;;;;7392648;19;20623;-74
2022/10/21 08:13:30;;;;;;;13.60;3.17;;;;;13.40;93635.00;;;;7395107;19;20149;-75
2022/10/21 08:15:58;;;;;;;6.93;3.28;;;;;13.30;93637.00;;;;7394148;19;20614;-73
2022/10/21 08:18:33;;;;;;;6.88;3.10;;;;;13.40;93636.00;;;;7388152;19;20160;-74
2022/10/21 08:21:04;;;;;;;7.45;3.03;;;;;13.30;93633.00;;;;7389901;19;20148;-74
2022/10/21 08:23:34;;;;;;;9.82;4.15;;;;;13.40;93647.00;;;;7392447;19;20137;-74
2022/10/21 08:26:14;;;;;;;10.60;3.80;;;;;13.40;93621.00;;;;7387451;19;20603;-74
2022/10/21 08:28:49;;;;;;;13.90;5.13;;;;;13.50;93636.00;;;;7386483;19;20157;-73
2022/10/21 08:31:24;;;;;;;9.07;3.42;;;;;13.60;93648.00;;;;7386382;19;20133;-73
2022/10/21 08:33:51;;;;;;;13.00;3.80;;;;;13.50;93678.00;;;;7391225;19;20184;-74
2022/10/21 08:36:22;;;;;;;4.70;2.97;;;;;13.40;93657.00;;;;7387633;19;20152;-72
2022/10/21 08:38:57;;;;;;;8.38;3.22;;;;;13.40;93674.00;;;;7390486;19;20161;-73
2022/10/21 08:41:47;;;;;;;12.63;3.42;;;;;13.40;93688.00;;;;7388466;19;20125;-74
2022/10/21 08:44:47;;;;;;;8.75;3.35;;;;;13.50;93655.00;;;;7387474;19;20145;-72
2022/10/21 08:47:35;;;;;;;6.65;3.35;;;;;13.50;93664.00;;;;7388895;19;20159;-72
2022/10/21 08:50:29;;;;;;;10.27;3.35;;;;;13.50;93693.00;;;;7385139;19;20856;-72
2022/10/21 08:53:37;;;;;;;8.15;3.35;;;;;13.50;93676.00;;;;7384866;19;20192;-73
2022/10/21 08:56:13;;;;;;;4.88;2.80;;;;;13.60;93688.00;;;;7383968;19;20149;-73
2022/10/21 08:58:50;;;;;;;11.02;3.28;;;;;13.60;93705.00;;;;7386296;19;20165;-73
2022/10/21 09:01:37;;;;;;;5.13;2.92;;;;;13.60;93723.00;;;;7381802;19;20153;-73
2022/10/21 09:04:33;;;;;;;6.53;2.50;;;;;13.50;93742.00;;;;7394120;19;20157;-74
2022/10/21 09:07:31;;;;;;;5.53;2.25;;;;;13.60;93742.00;;;;7388758;19;20244;-74
2022/10/21 09:10:11;;;;;;;8.55;2.60;;;;;13.70;93733.00;;;;7389585;19;20127;-74
2022/10/21 09:13:03;;;;;;;5.30;2.22;;;;;13.50;93721.00;;;;7388348;19;20169;-74
2022/10/21 09:15:53;;;;;;;5.97;2.20;;;;;13.80;93720.00;;;;7395255;19;20159;-73
2022/10/21 09:18:53;;;;;;;4.38;2.17;;;;;13.90;93716.00;;;;7393844;19;20129;-74
2022/10/21 09:21:32;;;;;;;6.07;2.28;;;;;14.00;93718.00;;;;7389977;19;20133;-72
2022/10/21 09:24:17;;;;;;;4.25;2.30;;;;;14.00;93719.00;;;;7393286;19;20220;-73
2022/10/21 09:26:49;;;;;;;3.17;2.30;;;;;14.10;93726.00;;;;7392408;19;20211;-72
2022/10/21 09:29:31;;;;;;;6.90;2.45;;;;;14.20;93721.00;;;;7394607;19;20143;-76
2022/10/21 09:32:15;;;;;;;5.50;2.45;;;;;14.20;93725.00;;;;7392421;19;20185;-74
2022/10/21 09:35:01;;;;;;;5.90;2.60;;;;;14.30;93718.00;;;;7392303;19;20176;-72
2022/10/21 09:37:46;;;;;;;6.43;2.45;;;;;14.50;93725.00;;;;7395654;19;20634;-75
2022/10/21 09:40:28;;;;;;;3.47;2.58;;;;;14.70;93728.00;;;;7390534;19;20159;-75
2022/10/21 09:42:58;;;;;;;8.80;2.70;;;;;14.50;93734.00;;;;7390572;19;20152;-73
2022/10/21 09:45:38;;;;;;;3.15;1.60;;;;;14.40;93737.00;;;;7395301;19;20156;-73
2022/10/21 09:48:36;;;;;;;5.10;1.90;;;;;14.50;93734.00;;;;7393132;19;20571;-72
2022/10/21 09:51:44;;;;;;;2.03;1.30;;;;;14.40;93737.00;;;;7392190;19;20183;-74
2022/10/21 09:54:22;;;;;;;2.58;1.20;;;;;14.30;93743.00;;;;7394135;19;20608;-73
2022/10/21 09:57:25;;;;;;;10.00;1.90;;;;;14.30;93736.00;;;;7393554;19;20136;-73
2022/10/21 10:00:01;;;;;;;4.68;1.48;;;;;14.40;93738.00;;;;7395937;19;20144;-73
2022/10/21 10:02:47;;;;;;;6.43;1.30;;;;;14.40;93740.00;;;;7394217;19;20160;-73
2022/10/21 10:05:46;;;;;;;3.13;0.98;;;;;14.40;93750.00;;;;7395326;19;20527;-74
2022/10/21 10:08:37;;;;;;;3.25;1.30;;;;;14.30;93752.00;;;;7393791;19;20507;-72
2022/10/21 10:11:16;;;;;;;1.83;1.08;;;;;14.40;93742.00;;;;7392584;19;20208;-72
2022/10/21 10:13:55;;;;;;;2.55;0.85;;;;;14.40;93750.00;;;;7395979;19;20208;-73
2022/10/21 10:16:28;;;;;;;1.20;1.10;;;;;14.30;93738.00;;;;7394604;19;20143;-71
2022/10/21 10:19:20;;;;;;;0.60;0.52;;;;;14.50;93745.00;;;;7393612;19;20153;-73
2022/10/21 10:22:08;;;;;;;1.05;0.75;;;;;14.50;93749.00;;;;7394343;19;20137;-70
2022/10/21 10:24:43;;;;;;;0.90;0.70;;;;;14.60;93742.00;;;;7391306;19;20160;-72
2022/10/21 10:27:22;;;;;;;2.08;1.33;;;;;14.60;93748.00;;;;7393734;19;20157;-71
2022/10/21 10:29:59;;;;;;;2.60;0.90;;;;;14.60;93745.00;;;;7393922;19;20171;-71
2022/10/21 10:32:33;;;;;;;1.13;0.57;;;;;14.70;93749.00;;;;7392084;19;20520;-72
2022/10/21 10:35:24;;;;;;;2.13;0.82;;;;;14.80;93765.00;;;;7393496;19;20594;-71
2022/10/21 10:37:52;;;;;;;4.05;0.90;;;;;14.90;93761.00;;;;7392565;19;21043;-73
2022/10/21 10:40:43;;;;;;;2.38;0.70;;;;;14.80;93754.00;;;;7388691;19;20232;-72
2022/10/21 10:43:32;;;;;;;1.38;0.80;;;;;14.90;93753.00;;;;7394368;19;20140;-72
2022/10/21 10:46:35;;;;;;;1.92;0.80;;;;;15.00;93740.00;;;;7391006;19;20205;-71
2022/10/21 10:49:34;;;;;;;1.23;0.77;;;;;15.20;93737.00;;;;7389462;19;20164;-71
2022/10/21 10:52:21;;;;;;;1.80;0.70;;;;;15.20;93732.00;;;;7389458;19;20169;-72
2022/10/21 10:55:12;;;;;;;2.00;0.75;;;;;15.20;93730.00;;;;7387480;19;20157;-73
2022/10/21 10:57:50;;;;;;;1.90;0.80;;;;;15.20;93747.00;;;;7390279;19;20157;-71
2022/10/21 11:00:43;;;;;;;2.63;0.85;;;;;15.20;93761.00;;;;7388382;19;20183;-73
2022/10/21 11:03:27;;;;;;;1.10;0.63;;;;;15.00;93759.00;;;;7387704;19;20161;-71
2022/10/21 11:06:18;;;;;;;1.48;0.80;;;;;15.00;93761.00;;;;7389785;19;20136;-71
2022/10/21 11:08:57;;;;;;;0.93;0.70;;;;;15.20;93759.00;;;;7390788;19;20169;-73
2022/10/21 11:11:38;;;;;;;2.03;0.80;;;;;15.70;93761.00;;;;7389492;19;20152;-74
2022/10/21 11:14:17;;;;;;;3.00;0.68;;;;;16.20;93761.00;;;;7391449;19;20175;-73
2022/10/21 11:17:08;;;;;;;1.02;0.70;;;;;16.10;93751.00;;;;7388025;19;20144;-74
2022/10/21 11:20:13;;;;;;;0.98;0.65;;;;;16.40;93751.00;;;;7390158;19;20221;-72
2022/10/21 11:22:54;;;;;;;1.77;0.80;;;;;16.40;93762.00;;;;7388335;19;20179;-73
2022/10/21 11:25:56;;;;;;;1.75;0.43;;;;;16.20;93772.00;;;;7390608;19;20132;-73
2022/10/21 11:28:43;;;;;;;2.90;0.80;;;;;16.30;93770.00;;;;7386407;19;20219;-72
2022/10/21 11:31:55;;;;;;;1.48;0.60;;;;;16.40;93769.00;;;;7388110;19;20628;-73
2022/10/21 11:35:01;;;;;;;2.35;1.00;;;;;16.40;93771.00;;;;7389011;19;20160;-72
2022/10/21 11:38:10;;;;;;;1.55;0.88;;;;;16.30;93762.00;;;;7387990;19;20224;-71
2022/10/21 11:41:22;;;;;;;4.28;0.80;;;;;16.10;93763.00;;;;7385748;19;20148;-74
2022/10/21 11:44:09;;;;;;;1.40;0.90;;;;;15.90;93762.00;;;;7387154;19;20148;-72
2022/10/21 11:46:43;;;;;;;1.02;0.82;;;;;15.70;93760.00;;;;7387079;19;20148;-72
2022/10/21 11:50:02;;;;;;;1.60;1.02;;;;;15.40;93758.00;;;;7388967;19;20152;-70
2022/10/21 11:52:49;;;;;;;1.60;0.88;;;;;15.30;93753.00;;;;7383644;19;20838;-72
2022/10/21 11:55:41;;;;;;;4.85;1.08;;;;;15.20;93760.00;;;;7390069;19;20137;-71
2022/10/21 11:58:28;;;;;;;2.67;1.00;;;;;15.20;93758.00;;;;7388919;19;20479;-72
2022/10/21 12:01:13;;;;;;;3.40;1.15;;;;;15.20;93757.00;;;;7388126;19;20309;-71
2022/10/21 12:04:01;;;;;;;4.07;1.02;;;;;15.30;93762.00;;;;7387634;19;20139;-70
2022/10/21 12:06:51;;;;;;;3.38;1.20;;;;;15.10;93764.00;;;;7384474;19;20175;-70
2022/10/21 12:09:36;;;;;;;0.90;0.70;;;;;15.20;93756.00;;;;7389981;19;20204;-71
2022/10/21 12:12:28;;;;;;;2.90;0.80;;;;;15.10;93756.00;;;;7385999;19;20144;-72
2022/10/21 12:15:03;;;;;;;2.47;1.30;;;;;15.10;93757.00;;;;7388810;19;20140;-72
2022/10/21 12:17:37;;;;;;;2.50;1.10;;;;;15.10;93766.00;;;;7387714;19;20156;-73
2022/10/21 12:20:14;;;;;;;1.80;1.08;;;;;15.20;93766.00;;;;7388839;19;20667;-71
2022/10/21 12:22:59;;;;;;;3.35;1.20;;;;;15.20;93765.00;;;;7385853;19;20133;-71
2022/10/21 12:26:09;;;;;;;2.85;1.38;;;;;15.40;93767.00;;;;7386425;19;20592;-71
2022/10/21 12:28:43;;;;;;;2.17;1.00;;;;;15.50;93769.00;;;;7386015;19;20164;-72
2022/10/21 12:31:27;;;;;;;6.18;1.27;;;;;15.50;93759.00;;;;7386824;19;20137;-72
2022/10/21 12:34:02;;;;;;;3.35;1.10;;;;;15.40;93767.00;;;;7386974;19;20216;-71
2022/10/21 12:36:42;;;;;;;2.17;1.40;;;;;15.60;93766.00;;;;7384973;19;20151;-71
2022/10/21 12:39:35;;;;;;;2.55;0.95;;;;;15.40;93758.00;;;;7387196;19;20140;-72
2022/10/21 12:42:13;;;;;;;1.90;1.20;;;;;15.40;93755.00;;;;7387040;19;20165;-72
2022/10/21 12:44:50;;;;;;;2.45;1.20;;;;;15.40;93754.00;;;;7383251;19;20841;-72
2022/10/21 12:47:42;;;;;;;5.53;1.30;;;;;15.30;93753.00;;;;7385839;19;20156;-71
2022/10/21 12:50:28;;;;;;;2.65;1.35;;;;;15.30;93755.00;;;;7390885;19;20823;-72
2022/10/21 12:53:26;;;;;;;3.00;1.27;;;;;15.40;93752.00;;;;7392031;19;20195;-71
2022/10/21 12:56:01;;;;;;;2.83;1.40;;;;;15.40;93751.00;;;;7398661;19;20148;-72
2022/10/21 12:58:40;;;;;;;4.10;1.13;;;;;15.50;93744.00;;;;7397589;19;20174;-72
2022/10/21 13:01:44;;;;;;;2.45;1.20;;;;;15.60;93755.00;;;;7393907;19;20687;-72
2022/10/21 13:04:44;;;;;;;2.92;1.33;;;;;15.70;93742.00;;;;7390236;19;20133;-71